sensor_id;sensor_type;location;lat;lon;timestamp;P1;durP1;ratioP1;P2;durP2;ratioP2
20695;SDS011;10507;52.754;13.040;2022-07-23T00:00:53;10.52;;;6.85;;
20695;SDS011;10507;52.754;13.040;2022-07-23T00:03:21;11.18;;;7.63;;
20695;SDS011;10507;52.754;13.040;2022-07-23T00:05:49;9.52;;;6.55;;
20695;SDS011;10507;52.754;13.040;2022-07-23T00:08:18;12.32;;;7.40;;
20695;SDS011;10507;52.754;13.040;2022-07-23T00:10:46;11.52;;;7.00;;
20695;SDS011;10507;52.754;13.040;2022-07-23T00:13:13;10.75;;;7.18;;
20695;SDS011;10507;52.754;13.040;2022-07-23T00:15:41;12.93;;;7.82;;
20695;SDS011;10507;52.754;13.040;2022-07-23T00:18:09;8.68;;;6.57;;
20695;SDS011;10507;52.754;13.040;2022-07-23T00:20:37;9.63;;;6.82;;
20695;SDS011;10507;52.754;13.040;2022-07-23T00:23:05;9.07;;;6.45;;
20695;SDS011;10507;52.754;13.040;2022-07-23T00:25:35;11.93;;;8.15;;
20695;SDS011;10507;52.754;13.040;2022-07-23T00:28:03;11.70;;;7.70;;
20695;SDS011;10507;52.754;13.040;2022-07-23T00:30:31;11.02;;;7.70;;
20695;SDS011;10507;52.754;13.040;2022-07-23T00:33:00;10.57;;;7.70;;
20695;SDS011;10507;52.754;13.040;2022-07-23T00:35:30;9.90;;;7.63;;
20695;SDS011;10507;52.754;13.040;2022-07-23T00:38:00;14.98;;;8.32;;
20695;SDS011;10507;52.754;13.040;2022-07-23T00:40:29;12.05;;;8.18;;
20695;SDS011;10507;52.754;13.040;2022-07-23T00:42:59;13.05;;;9.40;;
20695;SDS011;10507;52.754;13.040;2022-07-23T00:45:27;11.40;;;8.23;;
20695;SDS011;10507;52.754;13.040;2022-07-23T00:47:55;12.55;;;7.88;;
20695;SDS011;10507;52.754;13.040;2022-07-23T00:50:23;11.18;;;8.63;;
20695;SDS011;10507;52.754;13.040;2022-07-23T00:52:51;12.15;;;9.00;;
20695;SDS011;10507;52.754;13.040;2022-07-23T00:55:19;12.27;;;9.18;;
20695;SDS011;10507;52.754;13.040;2022-07-23T00:57:47;11.82;;;8.88;;
20695;SDS011;10507;52.754;13.040;2022-07-23T01:00:16;12.65;;;9.15;;
20695;SDS011;10507;52.754;13.040;2022-07-23T01:02:44;13.55;;;9.02;;
20695;SDS011;10507;52.754;13.040;2022-07-23T01:05:14;12.48;;;9.65;;
20695;SDS011;10507;52.754;13.040;2022-07-23T01:07:42;15.15;;;9.13;;
20695;SDS011;10507;52.754;13.040;2022-07-23T01:10:10;11.88;;;8.73;;
20695;SDS011;10507;52.754;13.040;2022-07-23T01:12:52;12.35;;;8.30;;
20695;SDS011;10507;52.754;13.040;2022-07-23T01:15:21;13.85;;;9.07;;
20695;SDS011;10507;52.754;13.040;2022-07-23T01:17:49;13.55;;;8.43;;
20695;SDS011;10507;52.754;13.040;2022-07-23T01:20:17;11.23;;;8.98;;
20695;SDS011;10507;52.754;13.040;2022-07-23T01:22:46;12.98;;;9.18;;
20695;SDS011;10507;52.754;13.040;2022-07-23T01:25:14;11.73;;;8.55;;
20695;SDS011;10507;52.754;13.040;2022-07-23T01:27:42;12.65;;;9.48;;
20695;SDS011;10507;52.754;13.040;2022-07-23T01:30:10;11.50;;;7.72;;
20695;SDS011;10507;52.754;13.040;2022-07-23T01:32:38;12.10;;;8.70;;
20695;SDS011;10507;52.754;13.040;2022-07-23T01:35:07;11.60;;;9.07;;
20695;SDS011;10507;52.754;13.040;2022-07-23T01:37:35;11.13;;;8.65;;
20695;SDS011;10507;52.754;13.040;2022-07-23T01:40:05;12.50;;;9.18;;
20695;SDS011;10507;52.754;13.040;2022-07-23T01:42:34;13.60;;;8.75;;
20695;SDS011;10507;52.754;13.040;2022-07-23T01:45:03;11.48;;;7.88;;
20695;SDS011;10507;52.754;13.040;2022-07-23T01:47:31;13.30;;;8.43;;
20695;SDS011;10507;52.754;13.040;2022-07-23T01:49:59;11.23;;;7.45;;
20695;SDS011;10507;52.754;13.040;2022-07-23T01:52:35;11.23;;;7.65;;
20695;SDS011;10507;52.754;13.040;2022-07-23T01:55:03;10.43;;;7.70;;
20695;SDS011;10507;52.754;13.040;2022-07-23T01:57:33;9.70;;;7.63;;
20695;SDS011;10507;52.754;13.040;2022-07-23T02:00:00;9.60;;;6.88;;
20695;SDS011;10507;52.754;13.040;2022-07-23T02:02:28;9.07;;;6.30;;
20695;SDS011;10507;52.754;13.040;2022-07-23T02:04:56;9.90;;;7.15;;
20695;SDS011;10507;52.754;13.040;2022-07-23T02:07:23;10.73;;;6.15;;
20695;SDS011;10507;52.754;13.040;2022-07-23T02:09:51;11.48;;;6.68;;
20695;SDS011;10507;52.754;13.040;2022-07-23T02:12:20;12.25;;;7.57;;
20695;SDS011;10507;52.754;13.040;2022-07-23T02:14:48;11.02;;;7.10;;
20695;SDS011;10507;52.754;13.040;2022-07-23T02:17:15;7.78;;;5.63;;
20695;SDS011;10507;52.754;13.040;2022-07-23T02:19:43;10.30;;;6.25;;
20695;SDS011;10507;52.754;13.040;2022-07-23T02:22:10;10.07;;;5.63;;
20695;SDS011;10507;52.754;13.040;2022-07-23T02:24:38;9.43;;;6.20;;
20695;SDS011;10507;52.754;13.040;2022-07-23T02:27:06;7.80;;;6.00;;
20695;SDS011;10507;52.754;13.040;2022-07-23T02:29:35;10.25;;;6.93;;
20695;SDS011;10507;52.754;13.040;2022-07-23T02:32:03;10.27;;;5.85;;
20695;SDS011;10507;52.754;13.040;2022-07-23T02:34:33;8.27;;;5.25;;
20695;SDS011;10507;52.754;13.040;2022-07-23T02:37:00;8.25;;;6.38;;
20695;SDS011;10507;52.754;13.040;2022-07-23T02:39:28;11.45;;;5.80;;
20695;SDS011;10507;52.754;13.040;2022-07-23T02:41:56;9.38;;;6.30;;
20695;SDS011;10507;52.754;13.040;2022-07-23T02:44:23;9.18;;;5.93;;
20695;SDS011;10507;52.754;13.040;2022-07-23T02:46:52;9.98;;;5.82;;
20695;SDS011;10507;52.754;13.040;2022-07-23T02:49:20;8.77;;;6.25;;
20695;SDS011;10507;52.754;13.040;2022-07-23T02:51:48;9.65;;;5.75;;
20695;SDS011;10507;52.754;13.040;2022-07-23T02:54:16;11.77;;;6.50;;
20695;SDS011;10507;52.754;13.040;2022-07-23T02:56:43;9.85;;;5.82;;
20695;SDS011;10507;52.754;13.040;2022-07-23T02:59:11;7.60;;;5.28;;
20695;SDS011;10507;52.754;13.040;2022-07-23T03:01:39;9.88;;;5.65;;
20695;SDS011;10507;52.754;13.040;2022-07-23T03:04:08;12.90;;;5.20;;
20695;SDS011;10507;52.754;13.040;2022-07-23T03:06:36;9.93;;;5.90;;
20695;SDS011;10507;52.754;13.040;2022-07-23T03:09:03;8.05;;;5.43;;
20695;SDS011;10507;52.754;13.040;2022-07-23T03:11:32;9.00;;;5.60;;
20695;SDS011;10507;52.754;13.040;2022-07-23T03:13:59;8.73;;;5.45;;
20695;SDS011;10507;52.754;13.040;2022-07-23T03:16:27;10.00;;;6.10;;
20695;SDS011;10507;52.754;13.040;2022-07-23T03:18:55;7.93;;;5.75;;
20695;SDS011;10507;52.754;13.040;2022-07-23T03:21:24;10.77;;;6.10;;
20695;SDS011;10507;52.754;13.040;2022-07-23T03:23:52;7.65;;;5.45;;
20695;SDS011;10507;52.754;13.040;2022-07-23T03:26:19;9.75;;;5.68;;
20695;SDS011;10507;52.754;13.040;2022-07-23T03:28:51;7.78;;;5.28;;
20695;SDS011;10507;52.754;13.040;2022-07-23T03:31:19;7.95;;;5.13;;
20695;SDS011;10507;52.754;13.040;2022-07-23T03:33:46;9.40;;;5.63;;
20695;SDS011;10507;52.754;13.040;2022-07-23T03:36:14;6.95;;;4.75;;
20695;SDS011;10507;52.754;13.040;2022-07-23T03:38:43;8.38;;;5.13;;
20695;SDS011;10507;52.754;13.040;2022-07-23T03:41:11;9.88;;;5.40;;
20695;SDS011;10507;52.754;13.040;2022-07-23T03:43:39;7.35;;;4.78;;
20695;SDS011;10507;52.754;13.040;2022-07-23T03:46:07;8.27;;;5.28;;
20695;SDS011;10507;52.754;13.040;2022-07-23T03:48:34;7.47;;;4.95;;
20695;SDS011;10507;52.754;13.040;2022-07-23T03:51:02;10.63;;;4.93;;
20695;SDS011;10507;52.754;13.040;2022-07-23T03:53:30;10.45;;;5.10;;
20695;SDS011;10507;52.754;13.040;2022-07-23T03:55:59;9.82;;;5.55;;
20695;SDS011;10507;52.754;13.040;2022-07-23T03:58:27;9.48;;;5.18;;
20695;SDS011;10507;52.754;13.040;2022-07-23T04:00:54;9.23;;;4.75;;
20695;SDS011;10507;52.754;13.040;2022-07-23T04:03:22;7.18;;;4.55;;
20695;SDS011;10507;52.754;13.040;2022-07-23T04:05:49;9.60;;;4.75;;
20695;SDS011;10507;52.754;13.040;2022-07-23T04:08:17;6.05;;;4.38;;
20695;SDS011;10507;52.754;13.040;2022-07-23T04:10:45;6.15;;;4.18;;
20695;SDS011;10507;52.754;13.040;2022-07-23T04:13:14;9.80;;;4.85;;
20695;SDS011;10507;52.754;13.040;2022-07-23T04:15:41;8.30;;;4.60;;
20695;SDS011;10507;52.754;13.040;2022-07-23T04:18:09;8.68;;;4.88;;
20695;SDS011;10507;52.754;13.040;2022-07-23T04:20:37;8.05;;;4.93;;
20695;SDS011;10507;52.754;13.040;2022-07-23T04:23:06;8.18;;;4.80;;
20695;SDS011;10507;52.754;13.040;2022-07-23T04:25:34;7.82;;;5.28;;
20695;SDS011;10507;52.754;13.040;2022-07-23T04:28:01;7.25;;;4.78;;
20695;SDS011;10507;52.754;13.040;2022-07-23T04:30:31;9.77;;;5.55;;
20695;SDS011;10507;52.754;13.040;2022-07-23T04:32:58;13.35;;;6.03;;
20695;SDS011;10507;52.754;13.040;2022-07-23T04:35:26;9.82;;;5.47;;
20695;SDS011;10507;52.754;13.040;2022-07-23T04:37:54;9.70;;;5.35;;
20695;SDS011;10507;52.754;13.040;2022-07-23T04:40:22;11.30;;;5.55;;
20695;SDS011;10507;52.754;13.040;2022-07-23T04:42:49;9.98;;;5.70;;
20695;SDS011;10507;52.754;13.040;2022-07-23T04:45:17;7.75;;;5.25;;
20695;SDS011;10507;52.754;13.040;2022-07-23T04:47:46;8.15;;;5.20;;
20695;SDS011;10507;52.754;13.040;2022-07-23T04:50:14;7.68;;;5.38;;
20695;SDS011;10507;52.754;13.040;2022-07-23T04:52:45;11.20;;;5.38;;
20695;SDS011;10507;52.754;13.040;2022-07-23T04:55:12;11.98;;;6.07;;
20695;SDS011;10507;52.754;13.040;2022-07-23T04:57:40;8.95;;;5.57;;
20695;SDS011;10507;52.754;13.040;2022-07-23T05:00:08;7.43;;;4.85;;
20695;SDS011;10507;52.754;13.040;2022-07-23T05:02:37;8.60;;;5.30;;
20695;SDS011;10507;52.754;13.040;2022-07-23T05:05:06;9.48;;;5.70;;
20695;SDS011;10507;52.754;13.040;2022-07-23T05:07:34;9.30;;;6.15;;
20695;SDS011;10507;52.754;13.040;2022-07-23T05:10:02;10.75;;;5.72;;
20695;SDS011;10507;52.754;13.040;2022-07-23T05:12:30;10.50;;;6.32;;
20695;SDS011;10507;52.754;13.040;2022-07-23T05:14:59;8.60;;;5.47;;
20695;SDS011;10507;52.754;13.040;2022-07-23T05:17:26;9.52;;;5.63;;
20695;SDS011;10507;52.754;13.040;2022-07-23T05:19:54;8.13;;;5.88;;
20695;SDS011;10507;52.754;13.040;2022-07-23T05:22:27;8.82;;;5.90;;
20695;SDS011;10507;52.754;13.040;2022-07-23T05:24:55;6.70;;;5.20;;
20695;SDS011;10507;52.754;13.040;2022-07-23T05:27:24;7.85;;;5.47;;
20695;SDS011;10507;52.754;13.040;2022-07-23T05:29:51;8.55;;;5.07;;
20695;SDS011;10507;52.754;13.040;2022-07-23T05:32:19;8.23;;;5.63;;
20695;SDS011;10507;52.754;13.040;2022-07-23T05:34:46;9.75;;;5.47;;
20695;SDS011;10507;52.754;13.040;2022-07-23T05:37:14;9.02;;;5.22;;
20695;SDS011;10507;52.754;13.040;2022-07-23T05:39:43;7.93;;;5.25;;
20695;SDS011;10507;52.754;13.040;2022-07-23T05:42:11;9.63;;;5.18;;
20695;SDS011;10507;52.754;13.040;2022-07-23T05:44:39;10.18;;;5.75;;
20695;SDS011;10507;52.754;13.040;2022-07-23T05:47:06;10.32;;;5.60;;
20695;SDS011;10507;52.754;13.040;2022-07-23T05:49:35;12.63;;;6.15;;
20695;SDS011;10507;52.754;13.040;2022-07-23T05:52:04;9.63;;;5.55;;
20695;SDS011;10507;52.754;13.040;2022-07-23T05:54:33;14.85;;;9.02;;
20695;SDS011;10507;52.754;13.040;2022-07-23T05:57:03;10.05;;;7.10;;
20695;SDS011;10507;52.754;13.040;2022-07-23T05:59:31;11.35;;;6.38;;
20695;SDS011;10507;52.754;13.040;2022-07-23T06:01:59;9.65;;;5.95;;
20695;SDS011;10507;52.754;13.040;2022-07-23T06:04:27;9.45;;;7.65;;
20695;SDS011;10507;52.754;13.040;2022-07-23T06:06:54;16.88;;;12.38;;
20695;SDS011;10507;52.754;13.040;2022-07-23T06:09:22;14.93;;;12.48;;
20695;SDS011;10507;52.754;13.040;2022-07-23T06:11:49;13.13;;;10.30;;
20695;SDS011;10507;52.754;13.040;2022-07-23T06:14:18;15.40;;;13.75;;
20695;SDS011;10507;52.754;13.040;2022-07-23T06:16:46;12.82;;;9.82;;
20695;SDS011;10507;52.754;13.040;2022-07-23T06:19:14;13.52;;;8.80;;
20695;SDS011;10507;52.754;13.040;2022-07-23T06:21:42;9.85;;;6.75;;
20695;SDS011;10507;52.754;13.040;2022-07-23T06:24:13;10.07;;;5.95;;
20695;SDS011;10507;52.754;13.040;2022-07-23T06:26:41;8.05;;;5.82;;
20695;SDS011;10507;52.754;13.040;2022-07-23T06:29:08;8.60;;;5.65;;
20695;SDS011;10507;52.754;13.040;2022-07-23T06:31:37;12.45;;;6.53;;
20695;SDS011;10507;52.754;13.040;2022-07-23T06:34:05;9.38;;;5.78;;
20695;SDS011;10507;52.754;13.040;2022-07-23T06:36:33;8.27;;;5.07;;
20695;SDS011;10507;52.754;13.040;2022-07-23T06:39:01;9.45;;;5.97;;
20695;SDS011;10507;52.754;13.040;2022-07-23T06:41:30;9.27;;;5.22;;
20695;SDS011;10507;52.754;13.040;2022-07-23T06:43:58;7.78;;;4.63;;
20695;SDS011;10507;52.754;13.040;2022-07-23T06:46:26;8.60;;;4.32;;
20695;SDS011;10507;52.754;13.040;2022-07-23T06:48:55;9.13;;;4.28;;
20695;SDS011;10507;52.754;13.040;2022-07-23T06:51:23;6.55;;;4.45;;
20695;SDS011;10507;52.754;13.040;2022-07-23T06:53:51;7.57;;;3.80;;
20695;SDS011;10507;52.754;13.040;2022-07-23T06:56:18;8.05;;;4.57;;
20695;SDS011;10507;52.754;13.040;2022-07-23T06:58:46;8.65;;;4.72;;
20695;SDS011;10507;52.754;13.040;2022-07-23T07:01:14;6.57;;;3.90;;
20695;SDS011;10507;52.754;13.040;2022-07-23T07:03:41;7.35;;;4.72;;
20695;SDS011;10507;52.754;13.040;2022-07-23T07:06:10;10.60;;;4.03;;
20695;SDS011;10507;52.754;13.040;2022-07-23T07:08:38;8.88;;;4.20;;
20695;SDS011;10507;52.754;13.040;2022-07-23T07:11:06;7.47;;;3.78;;
20695;SDS011;10507;52.754;13.040;2022-07-23T07:13:35;8.50;;;3.97;;
20695;SDS011;10507;52.754;13.040;2022-07-23T07:16:03;7.78;;;4.32;;
20695;SDS011;10507;52.754;13.040;2022-07-23T07:18:31;8.13;;;4.30;;
20695;SDS011;10507;52.754;13.040;2022-07-23T07:20:58;7.22;;;4.30;;
20695;SDS011;10507;52.754;13.040;2022-07-23T07:23:27;9.95;;;4.47;;
20695;SDS011;10507;52.754;13.040;2022-07-23T07:25:55;7.78;;;4.10;;
20695;SDS011;10507;52.754;13.040;2022-07-23T07:28:23;6.35;;;4.13;;
20695;SDS011;10507;52.754;13.040;2022-07-23T07:30:50;6.22;;;3.95;;
20695;SDS011;10507;52.754;13.040;2022-07-23T07:33:18;8.98;;;4.13;;
20695;SDS011;10507;52.754;13.040;2022-07-23T07:35:47;7.43;;;4.43;;
20695;SDS011;10507;52.754;13.040;2022-07-23T07:38:15;5.78;;;4.30;;
20695;SDS011;10507;52.754;13.040;2022-07-23T07:40:44;7.78;;;4.00;;
20695;SDS011;10507;52.754;13.040;2022-07-23T07:43:11;9.02;;;4.03;;
20695;SDS011;10507;52.754;13.040;2022-07-23T07:45:39;6.90;;;3.78;;
20695;SDS011;10507;52.754;13.040;2022-07-23T07:48:07;7.60;;;3.20;;
20695;SDS011;10507;52.754;13.040;2022-07-23T07:50:34;6.43;;;3.70;;
20695;SDS011;10507;52.754;13.040;2022-07-23T07:53:02;6.30;;;3.60;;
20695;SDS011;10507;52.754;13.040;2022-07-23T07:55:31;8.90;;;3.58;;
20695;SDS011;10507;52.754;13.040;2022-07-23T07:58:01;6.85;;;3.17;;
20695;SDS011;10507;52.754;13.040;2022-07-23T08:00:29;6.32;;;3.30;;
20695;SDS011;10507;52.754;13.040;2022-07-23T08:02:58;3.58;;;2.17;;
20695;SDS011;10507;52.754;13.040;2022-07-23T08:05:28;5.50;;;2.33;;
20695;SDS011;10507;52.754;13.040;2022-07-23T08:07:58;6.00;;;2.13;;
20695;SDS011;10507;52.754;13.040;2022-07-23T08:10:26;6.97;;;2.03;;
20695;SDS011;10507;52.754;13.040;2022-07-23T08:12:56;2.67;;;1.70;;
20695;SDS011;10507;52.754;13.040;2022-07-23T08:15:27;3.55;;;1.63;;
20695;SDS011;10507;52.754;13.040;2022-07-23T08:17:56;3.47;;;1.27;;
20695;SDS011;10507;52.754;13.040;2022-07-23T08:20:24;5.60;;;2.33;;
20695;SDS011;10507;52.754;13.040;2022-07-23T08:22:55;5.80;;;1.50;;
20695;SDS011;10507;52.754;13.040;2022-07-23T08:25:24;4.20;;;2.05;;
20695;SDS011;10507;52.754;13.040;2022-07-23T08:27:53;4.93;;;1.40;;
20695;SDS011;10507;52.754;13.040;2022-07-23T08:30:21;7.10;;;2.05;;
20695;SDS011;10507;52.754;13.040;2022-07-23T08:32:52;3.90;;;1.77;;
20695;SDS011;10507;52.754;13.040;2022-07-23T08:35:24;6.65;;;1.50;;
20695;SDS011;10507;52.754;13.040;2022-07-23T08:37:53;2.45;;;1.40;;
20695;SDS011;10507;52.754;13.040;2022-07-23T08:40:22;3.97;;;1.95;;
20695;SDS011;10507;52.754;13.040;2022-07-23T08:42:52;4.65;;;1.45;;
20695;SDS011;10507;52.754;13.040;2022-07-23T08:45:20;6.00;;;1.80;;
20695;SDS011;10507;52.754;13.040;2022-07-23T08:47:50;4.20;;;1.55;;
20695;SDS011;10507;52.754;13.040;2022-07-23T08:50:20;5.82;;;1.50;;
20695;SDS011;10507;52.754;13.040;2022-07-23T08:52:50;10.57;;;1.70;;
20695;SDS011;10507;52.754;13.040;2022-07-23T08:55:20;7.30;;;2.13;;
20695;SDS011;10507;52.754;13.040;2022-07-23T08:57:50;5.28;;;1.98;;
20695;SDS011;10507;52.754;13.040;2022-07-23T09:00:20;5.50;;;2.15;;
20695;SDS011;10507;52.754;13.040;2022-07-23T09:02:48;4.15;;;2.17;;
20695;SDS011;10507;52.754;13.040;2022-07-23T09:05:19;4.10;;;2.22;;
20695;SDS011;10507;52.754;13.040;2022-07-23T09:08:06;4.78;;;1.75;;
20695;SDS011;10507;52.754;13.040;2022-07-23T09:10:43;4.07;;;2.17;;
20695;SDS011;10507;52.754;13.040;2022-07-23T09:13:27;4.07;;;2.20;;
20695;SDS011;10507;52.754;13.040;2022-07-23T09:15:57;6.55;;;2.10;;
20695;SDS011;10507;52.754;13.040;2022-07-23T09:18:28;7.60;;;2.30;;
20695;SDS011;10507;52.754;13.040;2022-07-23T09:21:14;8.23;;;2.53;;
20695;SDS011;10507;52.754;13.040;2022-07-23T09:23:44;6.45;;;2.47;;
20695;SDS011;10507;52.754;13.040;2022-07-23T09:26:17;5.25;;;2.30;;
20695;SDS011;10507;52.754;13.040;2022-07-23T09:28:49;6.22;;;2.83;;
20695;SDS011;10507;52.754;13.040;2022-07-23T09:31:23;5.78;;;2.83;;
20695;SDS011;10507;52.754;13.040;2022-07-23T09:34:01;5.82;;;2.88;;
20695;SDS011;10507;52.754;13.040;2022-07-23T09:36:35;4.80;;;2.20;;
20695;SDS011;10507;52.754;13.040;2022-07-23T09:39:04;5.60;;;2.95;;
20695;SDS011;10507;52.754;13.040;2022-07-23T09:41:41;5.13;;;2.45;;
20695;SDS011;10507;52.754;13.040;2022-07-23T09:44:12;5.88;;;3.38;;
20695;SDS011;10507;52.754;13.040;2022-07-23T09:46:43;5.28;;;2.78;;
20695;SDS011;10507;52.754;13.040;2022-07-23T09:49:13;4.90;;;2.60;;
20695;SDS011;10507;52.754;13.040;2022-07-23T09:51:45;4.35;;;2.70;;
20695;SDS011;10507;52.754;13.040;2022-07-23T09:54:20;5.25;;;2.63;;
20695;SDS011;10507;52.754;13.040;2022-07-23T09:56:50;5.05;;;2.95;;
20695;SDS011;10507;52.754;13.040;2022-07-23T09:59:20;7.88;;;2.83;;
20695;SDS011;10507;52.754;13.040;2022-07-23T10:01:52;6.68;;;2.25;;
20695;SDS011;10507;52.754;13.040;2022-07-23T10:04:20;6.85;;;2.88;;
20695;SDS011;10507;52.754;13.040;2022-07-23T10:06:51;5.70;;;2.83;;
20695;SDS011;10507;52.754;13.040;2022-07-23T10:09:22;5.50;;;2.28;;
20695;SDS011;10507;52.754;13.040;2022-07-23T10:11:54;6.85;;;2.35;;
20695;SDS011;10507;52.754;13.040;2022-07-23T10:14:44;7.05;;;2.65;;
20695;SDS011;10507;52.754;13.040;2022-07-23T10:17:12;6.90;;;2.60;;
20695;SDS011;10507;52.754;13.040;2022-07-23T10:19:45;6.60;;;2.00;;
20695;SDS011;10507;52.754;13.040;2022-07-23T10:22:28;5.47;;;2.00;;
20695;SDS011;10507;52.754;13.040;2022-07-23T10:25:00;4.53;;;2.13;;
20695;SDS011;10507;52.754;13.040;2022-07-23T10:27:44;5.72;;;2.25;;
20695;SDS011;10507;52.754;13.040;2022-07-23T10:30:27;5.43;;;1.98;;
20695;SDS011;10507;52.754;13.040;2022-07-23T10:33:02;6.15;;;2.67;;
20695;SDS011;10507;52.754;13.040;2022-07-23T10:35:44;4.97;;;2.00;;
20695;SDS011;10507;52.754;13.040;2022-07-23T10:38:19;5.65;;;2.30;;
20695;SDS011;10507;52.754;13.040;2022-07-23T10:40:55;4.30;;;2.15;;
20695;SDS011;10507;52.754;13.040;2022-07-23T10:43:25;4.97;;;1.90;;
20695;SDS011;10507;52.754;13.040;2022-07-23T10:45:53;3.03;;;1.80;;
20695;SDS011;10507;52.754;13.040;2022-07-23T10:48:22;3.53;;;2.03;;
20695;SDS011;10507;52.754;13.040;2022-07-23T10:51:09;4.32;;;2.03;;
20695;SDS011;10507;52.754;13.040;2022-07-23T10:53:56;4.93;;;1.70;;
20695;SDS011;10507;52.754;13.040;2022-07-23T10:59:31;6.10;;;1.85;;
20695;SDS011;10507;52.754;13.040;2022-07-23T11:04:48;8.02;;;2.15;;
20695;SDS011;10507;52.754;13.040;2022-07-23T11:07:17;4.60;;;2.05;;
20695;SDS011;10507;52.754;13.040;2022-07-23T11:09:48;4.63;;;1.73;;
20695;SDS011;10507;52.754;13.040;2022-07-23T11:12:35;5.35;;;2.17;;
20695;SDS011;10507;52.754;13.040;2022-07-23T11:15:04;3.42;;;2.17;;
20695;SDS011;10507;52.754;13.040;2022-07-23T11:17:34;3.67;;;1.75;;
20695;SDS011;10507;52.754;13.040;2022-07-23T11:20:17;4.78;;;2.10;;
20695;SDS011;10507;52.754;13.040;2022-07-23T11:22:49;5.05;;;2.20;;
20695;SDS011;10507;52.754;13.040;2022-07-23T11:25:31;4.80;;;1.80;;
20695;SDS011;10507;52.754;13.040;2022-07-23T11:28:08;5.05;;;1.90;;
20695;SDS011;10507;52.754;13.040;2022-07-23T11:30:38;4.47;;;1.92;;
20695;SDS011;10507;52.754;13.040;2022-07-23T11:33:17;5.07;;;2.08;;
20695;SDS011;10507;52.754;13.040;2022-07-23T11:35:51;3.00;;;1.90;;
20695;SDS011;10507;52.754;13.040;2022-07-23T11:38:30;4.50;;;2.00;;
20695;SDS011;10507;52.754;13.040;2022-07-23T11:41:00;7.00;;;2.15;;
20695;SDS011;10507;52.754;13.040;2022-07-23T11:43:28;13.30;;;2.40;;
20695;SDS011;10507;52.754;13.040;2022-07-23T11:45:57;5.43;;;2.08;;
20695;SDS011;10507;52.754;13.040;2022-07-23T11:48:26;3.20;;;1.50;;
20695;SDS011;10507;52.754;13.040;2022-07-23T11:50:56;4.00;;;2.10;;
20695;SDS011;10507;52.754;13.040;2022-07-23T11:53:25;3.67;;;1.60;;
20695;SDS011;10507;52.754;13.040;2022-07-23T11:56:03;6.00;;;1.70;;
20695;SDS011;10507;52.754;13.040;2022-07-23T11:58:32;4.50;;;1.85;;
20695;SDS011;10507;52.754;13.040;2022-07-23T12:01:00;4.75;;;1.95;;
20695;SDS011;10507;52.754;13.040;2022-07-23T12:03:28;4.55;;;1.83;;
20695;SDS011;10507;52.754;13.040;2022-07-23T12:05:56;3.13;;;1.50;;
20695;SDS011;10507;52.754;13.040;2022-07-23T12:08:25;2.97;;;1.25;;
20695;SDS011;10507;52.754;13.040;2022-07-23T12:10:52;2.78;;;1.52;;
20695;SDS011;10507;52.754;13.040;2022-07-23T12:13:28;5.60;;;1.65;;
20695;SDS011;10507;52.754;13.040;2022-07-23T12:15:56;4.00;;;1.50;;
20695;SDS011;10507;52.754;13.040;2022-07-23T12:18:26;2.40;;;1.30;;
20695;SDS011;10507;52.754;13.040;2022-07-23T12:20:54;3.25;;;1.10;;
20695;SDS011;10507;52.754;13.040;2022-07-23T12:23:25;4.65;;;1.65;;
20695;SDS011;10507;52.754;13.040;2022-07-23T12:25:54;3.33;;;1.20;;
20695;SDS011;10507;52.754;13.040;2022-07-23T12:28:22;3.15;;;1.40;;
20695;SDS011;10507;52.754;13.040;2022-07-23T12:30:57;2.53;;;1.33;;
20695;SDS011;10507;52.754;13.040;2022-07-23T12:33:26;4.25;;;1.42;;
20695;SDS011;10507;52.754;13.040;2022-07-23T12:35:56;3.10;;;1.30;;
20695;SDS011;10507;52.754;13.040;2022-07-23T12:38:25;2.65;;;1.33;;
20695;SDS011;10507;52.754;13.040;2022-07-23T12:40:55;2.35;;;1.20;;
20695;SDS011;10507;52.754;13.040;2022-07-23T12:43:24;2.28;;;0.88;;
20695;SDS011;10507;52.754;13.040;2022-07-23T12:45:55;2.65;;;1.13;;
20695;SDS011;10507;52.754;13.040;2022-07-23T12:48:24;3.38;;;1.10;;
20695;SDS011;10507;52.754;13.040;2022-07-23T12:50:57;1.85;;;1.20;;
20695;SDS011;10507;52.754;13.040;2022-07-23T12:53:28;3.83;;;1.75;;
20695;SDS011;10507;52.754;13.040;2022-07-23T12:56:02;4.50;;;1.33;;
20695;SDS011;10507;52.754;13.040;2022-07-23T12:58:41;1.48;;;1.02;;
20695;SDS011;10507;52.754;13.040;2022-07-23T13:01:23;2.00;;;1.05;;
20695;SDS011;10507;52.754;13.040;2022-07-23T13:03:56;3.65;;;1.15;;
20695;SDS011;10507;52.754;13.040;2022-07-23T13:06:26;2.92;;;1.40;;
20695;SDS011;10507;52.754;13.040;2022-07-23T13:09:00;2.42;;;1.25;;
20695;SDS011;10507;52.754;13.040;2022-07-23T13:11:33;3.53;;;1.40;;
20695;SDS011;10507;52.754;13.040;2022-07-23T13:14:01;3.53;;;1.17;;
20695;SDS011;10507;52.754;13.040;2022-07-23T13:16:36;3.67;;;1.10;;
20695;SDS011;10507;52.754;13.040;2022-07-23T13:19:09;3.47;;;1.10;;
20695;SDS011;10507;52.754;13.040;2022-07-23T13:21:38;2.45;;;1.30;;
20695;SDS011;10507;52.754;13.040;2022-07-23T13:24:14;2.63;;;1.08;;
20695;SDS011;10507;52.754;13.040;2022-07-23T13:26:48;1.98;;;1.00;;
20695;SDS011;10507;52.754;13.040;2022-07-23T13:29:21;5.28;;;1.15;;
20695;SDS011;10507;52.754;13.040;2022-07-23T13:32:02;1.92;;;0.82;;
20695;SDS011;10507;52.754;13.040;2022-07-23T13:34:38;3.08;;;1.00;;
20695;SDS011;10507;52.754;13.040;2022-07-23T13:37:10;1.42;;;0.90;;
20695;SDS011;10507;52.754;13.040;2022-07-23T13:39:42;1.95;;;1.10;;
20695;SDS011;10507;52.754;13.040;2022-07-23T13:42:12;2.42;;;0.88;;
20695;SDS011;10507;52.754;13.040;2022-07-23T13:44:40;1.85;;;0.90;;
20695;SDS011;10507;52.754;13.040;2022-07-23T13:47:11;2.47;;;1.00;;
20695;SDS011;10507;52.754;13.040;2022-07-23T13:49:43;1.77;;;0.95;;
20695;SDS011;10507;52.754;13.040;2022-07-23T13:52:16;1.73;;;0.93;;
20695;SDS011;10507;52.754;13.040;2022-07-23T13:54:49;2.83;;;1.00;;
20695;SDS011;10507;52.754;13.040;2022-07-23T13:57:17;1.40;;;0.80;;
20695;SDS011;10507;52.754;13.040;2022-07-23T13:59:45;1.58;;;0.98;;
20695;SDS011;10507;52.754;13.040;2022-07-23T14:02:15;4.88;;;0.80;;
20695;SDS011;10507;52.754;13.040;2022-07-23T14:04:46;1.50;;;1.00;;
20695;SDS011;10507;52.754;13.040;2022-07-23T14:07:15;5.07;;;1.40;;
20695;SDS011;10507;52.754;13.040;2022-07-23T14:09:43;2.10;;;0.75;;
20695;SDS011;10507;52.754;13.040;2022-07-23T14:12:11;4.32;;;1.10;;
20695;SDS011;10507;52.754;13.040;2022-07-23T14:14:43;1.45;;;1.05;;
20695;SDS011;10507;52.754;13.040;2022-07-23T14:17:11;1.55;;;1.00;;
20695;SDS011;10507;52.754;13.040;2022-07-23T14:19:43;1.92;;;0.88;;
20695;SDS011;10507;52.754;13.040;2022-07-23T14:22:14;3.45;;;1.27;;
20695;SDS011;10507;52.754;13.040;2022-07-23T14:24:42;2.35;;;1.00;;
20695;SDS011;10507;52.754;13.040;2022-07-23T14:27:12;1.75;;;0.80;;
20695;SDS011;10507;52.754;13.040;2022-07-23T14:29:41;3.72;;;1.20;;
20695;SDS011;10507;52.754;13.040;2022-07-23T14:32:09;1.83;;;1.00;;
20695;SDS011;10507;52.754;13.040;2022-07-23T14:34:36;1.83;;;0.93;;
20695;SDS011;10507;52.754;13.040;2022-07-23T14:37:06;1.77;;;0.80;;
20695;SDS011;10507;52.754;13.040;2022-07-23T14:39:33;0.70;;;0.70;;
20695;SDS011;10507;52.754;13.040;2022-07-23T14:42:01;1.13;;;0.70;;
20695;SDS011;10507;52.754;13.040;2022-07-23T14:44:29;4.65;;;1.10;;
20695;SDS011;10507;52.754;13.040;2022-07-23T14:46:57;1.80;;;0.90;;
20695;SDS011;10507;52.754;13.040;2022-07-23T14:49:26;2.03;;;1.05;;
20695;SDS011;10507;52.754;13.040;2022-07-23T14:51:54;1.50;;;1.00;;